createdAt,value
2022-12-19T00:00:13.980Z,25.80
2022-12-19T00:02:42.696Z,26.92
2022-12-19T00:05:10.974Z,26.73
2022-12-19T00:07:38.301Z,27.05
2022-12-19T00:10:06.673Z,27.75
2022-12-19T00:12:34.016Z,26.52
2022-12-19T00:15:01.953Z,27.15
2022-12-19T00:17:29.381Z,25.70
2022-12-19T00:19:57.053Z,26.45
2022-12-19T00:22:24.495Z,27.33
2022-12-19T00:24:52.031Z,26.20
2022-12-19T00:27:19.315Z,27.00
2022-12-19T00:29:47.475Z,27.00
2022-12-19T00:32:16.145Z,29.10
2022-12-19T00:34:44.009Z,28.83
2022-12-19T00:37:11.884Z,27.10
2022-12-19T00:39:39.215Z,28.13
2022-12-19T00:42:06.712Z,29.08
2022-12-19T00:44:34.089Z,28.25
2022-12-19T00:47:01.455Z,27.92
2022-12-19T00:49:28.694Z,27.52
2022-12-19T00:51:57.903Z,26.35
2022-12-19T00:54:25.353Z,27.80
2022-12-19T00:56:52.708Z,27.83
2022-12-19T00:59:20.113Z,27.60
2022-12-19T01:01:57.693Z,31.55
2022-12-19T01:04:29.602Z,30.17
2022-12-19T01:07:01.761Z,30.50
2022-12-19T01:12:19.395Z,29.17
2022-12-19T01:14:48.405Z,30.20
2022-12-19T01:17:15.909Z,29.73
2022-12-19T01:19:44.573Z,28.45
2022-12-19T01:22:15.106Z,29.80
2022-12-19T01:24:42.631Z,29.10
2022-12-19T01:27:09.918Z,30.52
2022-12-19T01:29:45.826Z,30.13
2022-12-19T01:32:21.723Z,30.85
2022-12-19T01:34:49.275Z,29.98
2022-12-19T01:37:20.438Z,28.38
2022-12-19T01:39:48.022Z,30.05
2022-12-19T01:42:17.771Z,29.40
2022-12-19T01:45:13.393Z,30.92
2022-12-19T01:47:53.774Z,29.40
2022-12-19T01:50:26.073Z,28.45
2022-12-19T01:52:54.084Z,29.10
2022-12-19T01:55:21.884Z,28.30
2022-12-19T01:57:51.482Z,29.52
2022-12-19T02:00:18.835Z,29.30
2022-12-19T02:02:59.562Z,28.80
2022-12-19T02:05:27.026Z,29.92
2022-12-19T02:07:54.589Z,28.00
2022-12-19T02:10:21.997Z,28.17
2022-12-19T02:12:50.043Z,29.13
2022-12-19T02:15:18.268Z,26.92
2022-12-19T02:18:16.050Z,27.33
2022-12-19T02:21:10.204Z,27.95
2022-12-19T02:24:19.967Z,28.67
2022-12-19T02:26:56.204Z,27.42
2022-12-19T02:29:46.879Z,27.27
2022-12-19T02:32:27.047Z,27.42
2022-12-19T02:35:13.764Z,25.80
2022-12-19T02:38:09.199Z,27.25
2022-12-19T02:40:46.554Z,27.23
2022-12-19T02:43:19.275Z,29.33
2022-12-19T02:45:48.505Z,27.73
2022-12-19T02:48:19.244Z,28.38
2022-12-19T02:50:49.911Z,28.08
2022-12-19T02:53:23.639Z,27.33
2022-12-19T02:56:14.548Z,28.20
2022-12-19T02:59:09.867Z,26.90
2022-12-19T03:01:51.148Z,27.55
2022-12-19T03:04:31.198Z,27.15
2022-12-19T03:07:21.234Z,27.65
2022-12-19T03:09:58.640Z,27.98
2022-12-19T03:12:36.498Z,26.63
2022-12-19T03:15:04.959Z,28.58
2022-12-19T03:17:37.100Z,28.48
2022-12-19T03:20:16.310Z,26.15
2022-12-19T03:22:43.713Z,27.25
2022-12-19T03:25:11.264Z,26.10
2022-12-19T03:27:39.851Z,26.38
2022-12-19T03:30:10.904Z,27.27
2022-12-19T03:37:48.796Z,26.48
2022-12-19T03:40:19.098Z,27.08
2022-12-19T03:43:06.741Z,27.75
2022-12-19T03:45:42.628Z,26.50
2022-12-19T03:48:25.117Z,26.60
2022-12-19T03:51:00.500Z,27.20
2022-12-19T03:53:45.363Z,28.00
2022-12-19T03:59:05.035Z,27.65
2022-12-19T04:01:34.194Z,27.00
2022-12-19T04:04:03.290Z,27.67
2022-12-19T04:06:33.158Z,27.48
2022-12-19T04:09:01.130Z,26.95
2022-12-19T04:11:34.322Z,28.60
2022-12-19T04:14:07.331Z,26.63
2022-12-19T04:16:44.498Z,28.45
2022-12-19T04:19:19.648Z,28.45
2022-12-19T04:22:01.923Z,27.98
2022-12-19T04:24:34.277Z,27.65
2022-12-19T04:27:05.696Z,28.45
2022-12-19T04:29:35.337Z,27.55
2022-12-19T04:32:04.971Z,26.50
2022-12-19T04:34:32.885Z,27.20
2022-12-19T04:37:03.948Z,29.95
2022-12-19T04:39:31.396Z,27.80
2022-12-19T04:41:58.987Z,28.63
2022-12-19T04:44:26.313Z,28.00
2022-12-19T04:46:53.810Z,28.75
2022-12-19T04:49:21.253Z,29.00
2022-12-19T04:51:48.972Z,30.08
2022-12-19T04:54:16.716Z,31.33
2022-12-19T04:56:44.121Z,28.90
2022-12-19T04:59:11.626Z,28.98
2022-12-19T05:01:39.055Z,29.10
2022-12-19T05:04:06.427Z,28.90
2022-12-19T05:06:33.736Z,30.50
2022-12-19T05:09:01.121Z,28.52
2022-12-19T05:11:28.546Z,30.00
2022-12-19T05:13:56.060Z,28.80
2022-12-19T05:16:23.359Z,28.60
2022-12-19T05:18:50.680Z,30.52
2022-12-19T05:21:17.964Z,28.17
2022-12-19T05:23:45.348Z,30.33
2022-12-19T05:26:13.056Z,29.92
2022-12-19T05:28:40.366Z,28.45
2022-12-19T05:31:10.538Z,29.45
2022-12-19T05:33:38.766Z,30.10
2022-12-19T05:36:06.595Z,30.65
2022-12-19T05:38:34.182Z,29.15
2022-12-19T05:41:17.018Z,29.92
2022-12-19T05:43:50.116Z,30.98
2022-12-19T05:46:17.510Z,29.17
2022-12-19T05:48:45.193Z,29.80
2022-12-19T05:51:13.230Z,30.67
2022-12-19T05:53:41.469Z,30.67
2022-12-19T05:56:17.447Z,30.07
2022-12-19T05:58:46.173Z,31.15
2022-12-19T06:01:17.513Z,31.42
2022-12-19T06:03:45.205Z,31.17
2022-12-19T06:06:15.131Z,30.92
2022-12-19T06:08:42.659Z,29.58
2022-12-19T06:11:11.097Z,30.75
2022-12-19T06:13:39.267Z,31.52
2022-12-19T06:16:13.285Z,30.35
2022-12-19T06:18:45.278Z,30.70
2022-12-19T06:21:14.550Z,31.67
2022-12-19T06:23:42.551Z,32.25
2022-12-19T06:26:18.336Z,31.65
2022-12-19T06:28:47.413Z,29.95
2022-12-19T06:31:15.675Z,30.95
2022-12-19T06:33:43.065Z,31.50
2022-12-19T06:36:22.132Z,29.63
2022-12-19T06:38:50.661Z,30.65
2022-12-19T06:41:37.504Z,29.95
2022-12-19T06:44:10.604Z,29.80
2022-12-19T06:49:08.228Z,31.23
2022-12-19T06:51:35.663Z,30.70
2022-12-19T06:54:03.326Z,31.77
2022-12-19T06:56:38.567Z,30.30
2022-12-19T06:59:07.311Z,30.55
2022-12-19T07:01:34.784Z,28.92
2022-12-19T07:04:02.238Z,30.65
2022-12-19T07:06:29.816Z,29.70
2022-12-19T07:08:57.613Z,31.23
2022-12-19T07:11:24.894Z,31.05
2022-12-19T07:13:52.220Z,30.02
2022-12-19T07:16:20.390Z,31.08
2022-12-19T07:18:47.697Z,31.50
2022-12-19T07:21:15.007Z,30.92
2022-12-19T07:23:42.649Z,29.35
2022-12-19T07:26:10.035Z,29.38
2022-12-19T07:28:38.337Z,30.08
2022-12-19T07:31:05.780Z,29.85
2022-12-19T07:33:33.668Z,28.08
2022-12-19T07:36:00.907Z,29.23
2022-12-19T07:38:28.158Z,28.70
2022-12-19T07:40:55.586Z,31.15
2022-12-19T07:43:22.839Z,30.02
2022-12-19T07:45:55.243Z,27.98
2022-12-19T07:48:23.389Z,30.65
2022-12-19T07:50:50.691Z,28.58
2022-12-19T07:53:18.031Z,28.00
2022-12-19T07:55:45.407Z,28.42
2022-12-19T07:58:15.885Z,26.25
2022-12-19T08:00:43.303Z,28.17
2022-12-19T08:03:10.641Z,27.92
2022-12-19T08:05:39.154Z,25.98
2022-12-19T08:08:06.388Z,27.60
2022-12-19T08:10:33.673Z,27.98
2022-12-19T08:13:00.927Z,27.30
2022-12-19T08:15:28.175Z,26.58
2022-12-19T08:17:56.176Z,27.50
2022-12-19T08:20:23.505Z,27.50
2022-12-19T08:22:51.457Z,27.23
2022-12-19T08:25:18.756Z,27.45
2022-12-19T08:27:46.026Z,27.30
2022-12-19T08:30:14.072Z,26.48
2022-12-19T08:32:41.358Z,27.17
2022-12-19T08:35:09.086Z,28.35
2022-12-19T08:37:36.692Z,26.90
2022-12-19T08:40:04.367Z,25.85
2022-12-19T08:42:32.387Z,25.30
2022-12-19T08:44:59.600Z,25.85
2022-12-19T08:47:26.974Z,25.48
2022-12-19T08:49:54.607Z,25.73
2022-12-19T08:52:21.828Z,24.98
2022-12-19T08:54:49.091Z,25.70
2022-12-19T08:57:16.551Z,25.55
2022-12-19T08:59:43.812Z,24.95
2022-12-19T09:02:12.229Z,26.15
2022-12-19T09:05:58.726Z,23.77
2022-12-19T09:07:27.064Z,25.30
2022-12-19T09:09:54.592Z,23.58
2022-12-19T09:12:21.902Z,25.13
2022-12-19T09:14:50.556Z,24.27
2022-12-19T09:17:17.890Z,23.67
2022-12-19T09:19:48.161Z,24.70
2022-12-19T09:22:16.531Z,23.60
2022-12-19T09:24:44.175Z,23.88
2022-12-19T09:27:11.652Z,23.65
2022-12-19T09:29:39.217Z,23.33
2022-12-19T09:32:06.507Z,24.42
2022-12-19T09:34:38.597Z,23.90
2022-12-19T09:37:17.037Z,21.88
2022-12-19T09:39:46.430Z,22.80
2022-12-19T09:42:41.721Z,22.50
2022-12-19T09:45:35.516Z,23.30
2022-12-19T09:48:10.797Z,24.02
2022-12-19T09:51:10.029Z,22.90
2022-12-19T09:53:59.611Z,21.95
2022-12-19T09:56:34.088Z,22.42
2022-12-19T09:59:39.943Z,21.30
2022-12-19T10:02:42.672Z,21.33
2022-12-19T10:05:50.561Z,23.13
2022-12-19T10:08:53.799Z,21.92
2022-12-19T10:12:39.749Z,20.35
2022-12-19T10:14:43.805Z,21.83
2022-12-19T10:17:29.238Z,22.00
2022-12-19T10:20:16.064Z,22.00
2022-12-19T10:23:10.886Z,20.65
2022-12-19T10:25:51.635Z,21.52
2022-12-19T10:28:48.329Z,21.05
2022-12-19T10:31:44.959Z,23.05
2022-12-19T10:34:22.418Z,20.60
2022-12-19T10:37:26.626Z,21.65
2022-12-19T10:39:54.981Z,21.25
2022-12-19T10:42:28.214Z,20.23
2022-12-19T10:44:59.208Z,21.80
2022-12-19T10:47:26.586Z,19.95
2022-12-19T10:49:53.905Z,19.60
2022-12-19T10:53:11.024Z,20.08
2022-12-19T10:55:50.810Z,20.65
2022-12-19T10:58:22.368Z,19.30
2022-12-19T11:01:10.561Z,19.60
2022-12-19T11:03:39.438Z,18.45
2022-12-19T11:06:07.339Z,17.80
2022-12-19T11:08:36.742Z,18.95
2022-12-19T11:12:52.263Z,19.50
2022-12-19T11:19:39.020Z,17.90
2022-12-19T11:23:03.474Z,18.85
2022-12-19T11:29:16.226Z,18.50
2022-12-19T11:29:36.497Z,18.48
2022-12-19T11:30:35.947Z,19.42
2022-12-19T11:30:43.668Z,19.80
2022-12-19T11:32:33.939Z,18.25
2022-12-19T11:34:22.561Z,18.67
2022-12-19T11:37:11.221Z,18.97
2022-12-19T11:39:52.566Z,19.50
2022-12-19T11:42:29.115Z,19.48
2022-12-19T11:45:11.463Z,19.92
2022-12-19T11:47:47.009Z,19.48
2022-12-19T11:51:01.491Z,18.52
2022-12-19T11:53:37.599Z,19.30
2022-12-19T11:58:51.386Z,19.17
2022-12-19T12:02:00.371Z,18.95
2022-12-19T12:04:52.655Z,19.10
2022-12-19T12:07:45.593Z,18.65
2022-12-19T12:16:22.290Z,18.67
2022-12-19T12:21:02.799Z,17.92
2022-12-19T12:31:01.887Z,17.17
2022-12-19T12:31:22.092Z,18.98
2022-12-19T12:31:31.195Z,19.52
2022-12-19T12:31:46.434Z,18.00
2022-12-19T12:32:02.998Z,18.38
2022-12-19T12:35:54.429Z,17.58
2022-12-19T12:38:45.991Z,17.52
2022-12-19T12:41:50.399Z,17.33
2022-12-19T12:44:18.320Z,16.38
2022-12-19T12:47:21.775Z,16.77
2022-12-19T12:50:02.211Z,16.95
2022-12-19T12:52:38.397Z,17.23
2022-12-19T12:55:19.443Z,15.95
2022-12-19T12:57:46.941Z,15.52
2022-12-19T13:00:14.373Z,16.88
2022-12-19T13:02:45.742Z,15.65
2022-12-19T13:05:43.685Z,16.95
2022-12-19T13:08:25.286Z,16.20
2022-12-19T13:10:58.951Z,16.40
2022-12-19T13:13:57.890Z,16.05
2022-12-19T13:16:43.684Z,16.48
2022-12-19T13:19:19.672Z,15.35
2022-12-19T13:22:05.134Z,16.05
2022-12-19T13:24:57.085Z,16.95
2022-12-19T13:27:24.809Z,14.75
2022-12-19T13:30:00.840Z,15.93
2022-12-19T13:32:53.347Z,15.40
2022-12-19T13:39:45.250Z,16.10
2022-12-19T15:42:57.021Z,11.07
2022-12-19T15:45:24.814Z,11.65
2022-12-19T15:47:52.662Z,11.32
2022-12-19T15:50:22.744Z,11.82
2022-12-19T15:52:52.324Z,11.63
2022-12-19T15:55:22.578Z,10.85
2022-12-19T15:57:58.076Z,11.95
2022-12-19T16:00:29.066Z,11.82
2022-12-19T16:03:23.377Z,11.02
2022-12-19T16:05:44.610Z,11.15
2022-12-19T16:08:21.406Z,11.20
2022-12-19T16:10:59.381Z,11.40
2022-12-19T16:13:32.055Z,10.10
2022-12-19T16:15:59.608Z,10.27
2022-12-19T16:18:27.248Z,11.20
2022-12-19T16:20:54.585Z,11.00
2022-12-19T16:23:25.283Z,10.73
2022-12-19T16:25:52.841Z,10.50
2022-12-19T16:28:28.728Z,10.43
2022-12-19T16:30:58.135Z,10.10
2022-12-19T16:33:30.826Z,12.15
2022-12-19T16:36:06.861Z,10.80
2022-12-19T16:38:35.135Z,10.73
2022-12-19T16:41:02.909Z,11.25
2022-12-19T16:43:31.759Z,10.25
2022-12-19T16:46:01.319Z,10.32
2022-12-19T16:48:48.958Z,10.05
2022-12-19T16:51:20.377Z,9.60
2022-12-19T16:53:49.288Z,11.25
2022-12-19T16:56:33.806Z,10.52
2022-12-19T16:59:04.396Z,10.32
2022-12-19T17:01:32.104Z,9.57
2022-12-19T17:03:59.507Z,10.00
2022-12-19T17:06:26.894Z,9.15
2022-12-19T17:08:54.132Z,9.57
2022-12-19T17:11:24.241Z,10.43
2022-12-19T17:13:55.792Z,9.40
2022-12-19T17:16:23.291Z,9.65
2022-12-19T17:18:50.795Z,9.98
2022-12-19T17:21:21.494Z,10.35
2022-12-19T17:23:50.241Z,10.38
2022-12-19T17:26:18.445Z,9.18
2022-12-19T17:28:48.984Z,9.65
2022-12-19T17:31:28.952Z,10.10
2022-12-19T17:33:57.944Z,9.75
2022-12-19T17:36:32.811Z,9.13
2022-12-19T17:39:30.991Z,10.02
2022-12-19T17:42:37.254Z,9.50
2022-12-19T17:45:05.467Z,9.15
2022-12-19T17:47:32.860Z,8.88
2022-12-19T17:50:00.294Z,9.13
2022-12-19T17:52:27.772Z,9.65
2022-12-19T17:54:55.067Z,9.73
2022-12-19T17:57:22.317Z,9.48
2022-12-19T17:59:49.624Z,9.18
2022-12-19T18:02:24.131Z,8.63
2022-12-19T18:07:19.471Z,9.52
2022-12-19T18:09:46.978Z,9.02
2022-12-19T18:12:14.340Z,8.57
2022-12-19T18:14:41.682Z,10.02
2022-12-19T18:17:12.604Z,9.35
2022-12-19T18:19:40.067Z,8.48
2022-12-19T18:22:14.310Z,8.85
2022-12-19T18:24:42.193Z,8.02
2022-12-19T18:27:10.618Z,8.25
2022-12-19T18:29:37.903Z,8.40
2022-12-19T18:32:05.327Z,8.00
2022-12-19T18:34:34.455Z,8.07
2022-12-19T18:37:02.669Z,8.02
2022-12-19T18:39:31.914Z,8.93
2022-12-19T18:41:59.310Z,7.75
2022-12-19T18:44:26.624Z,8.07
2022-12-19T18:46:53.986Z,7.93
2022-12-19T18:49:22.825Z,8.63
2022-12-19T18:51:50.159Z,7.95
2022-12-19T18:54:19.638Z,8.27
2022-12-19T18:56:47.284Z,7.00
2022-12-19T18:59:14.676Z,8.00
2022-12-19T19:01:44.876Z,7.03
2022-12-19T19:04:14.885Z,7.10
2022-12-19T19:06:50.344Z,6.88
2022-12-19T19:09:20.070Z,6.30
2022-12-19T19:11:54.538Z,6.75
2022-12-19T19:14:21.931Z,6.60
2022-12-19T19:16:49.268Z,6.57
2022-12-19T19:19:18.441Z,7.22
2022-12-19T19:21:45.716Z,6.10
2022-12-19T19:24:17.134Z,6.57
2022-12-19T19:26:44.713Z,6.35
2022-12-19T19:29:14.786Z,6.80
2022-12-19T19:31:45.787Z,5.88
2022-12-19T19:34:19.554Z,5.80
2022-12-19T19:36:49.760Z,5.77
2022-12-19T19:39:19.644Z,6.50
2022-12-19T19:41:46.916Z,6.43
2022-12-19T19:44:14.275Z,6.53
2022-12-19T19:46:41.603Z,6.40
2022-12-19T19:49:09.020Z,5.47
2022-12-19T19:51:36.514Z,5.70
2022-12-19T19:54:03.981Z,5.85
2022-12-19T19:56:32.314Z,5.97
2022-12-19T19:59:00.611Z,5.70
2022-12-19T20:01:28.310Z,5.68
2022-12-19T20:03:55.912Z,5.72
2022-12-19T20:06:23.359Z,5.78
2022-12-19T20:08:50.726Z,5.45
2022-12-19T20:11:18.131Z,5.88
2022-12-19T20:13:45.481Z,6.40
2022-12-19T20:16:18.385Z,6.10
2022-12-19T20:18:50.708Z,5.13
2022-12-19T20:21:19.740Z,5.03
2022-12-19T20:23:47.555Z,5.32
2022-12-19T20:26:16.996Z,5.40
2022-12-19T20:28:48.869Z,4.93
2022-12-19T20:31:19.282Z,4.72
2022-12-19T20:33:48.354Z,4.07
2022-12-19T20:36:16.585Z,3.58
2022-12-19T20:38:44.099Z,3.47
2022-12-19T20:41:11.561Z,3.65
2022-12-19T20:43:39.423Z,3.55
2022-12-19T20:46:13.141Z,2.90
2022-12-19T20:48:41.206Z,3.20
2022-12-19T20:51:08.978Z,2.75
2022-12-19T20:53:37.390Z,2.78
2022-12-19T20:56:06.681Z,3.00
2022-12-19T20:58:36.457Z,2.85
2022-12-19T21:01:18.041Z,1.90
2022-12-19T21:03:46.639Z,3.13
2022-12-19T21:06:18.299Z,2.78
2022-12-19T21:08:45.909Z,2.60
2022-12-19T21:11:15.485Z,2.25
2022-12-19T21:13:43.031Z,2.08
2022-12-19T21:16:14.552Z,2.42
2022-12-19T21:18:44.766Z,2.40
2022-12-19T21:21:15.271Z,2.22
2022-12-19T21:23:43.621Z,2.00
2022-12-19T21:26:11.026Z,2.10
2022-12-19T21:28:38.618Z,2.15
2022-12-19T21:31:11.846Z,2.00
2022-12-19T21:33:39.250Z,1.90
2022-12-19T21:36:16.560Z,2.08
2022-12-19T21:38:44.047Z,1.83
2022-12-19T21:41:13.019Z,2.40
2022-12-19T21:43:40.308Z,1.80
2022-12-19T21:46:09.746Z,1.77
2022-12-19T21:48:39.084Z,1.73
2022-12-19T21:51:07.618Z,1.70
2022-12-19T21:53:36.297Z,2.17
2022-12-19T21:56:12.881Z,2.00
2022-12-19T21:58:40.227Z,1.60
2022-12-19T22:01:14.597Z,2.05
2022-12-19T22:03:41.980Z,2.40
2022-12-19T22:06:16.123Z,2.10
2022-12-19T22:08:44.717Z,2.20
2022-12-19T22:11:17.806Z,1.60
2022-12-19T22:13:46.428Z,1.50
2022-12-19T22:16:14.554Z,1.60
2022-12-19T22:18:43.174Z,1.92
2022-12-19T22:21:12.829Z,1.50
2022-12-19T22:23:40.690Z,1.63
2022-12-19T22:26:14.154Z,2.15
2022-12-19T22:28:44.641Z,1.60
2022-12-19T22:31:22.250Z,1.38
2022-12-19T22:33:52.997Z,1.38
2022-12-19T22:36:27.583Z,1.67
2022-12-19T22:38:56.368Z,1.50
2022-12-19T22:41:24.622Z,1.50
2022-12-19T22:43:52.401Z,1.60
2022-12-19T22:46:28.241Z,1.58
2022-12-19T22:48:58.171Z,1.35
2022-12-19T22:51:26.762Z,1.40
2022-12-19T22:53:54.422Z,1.48
2022-12-19T22:56:24.437Z,1.83
2022-12-19T22:58:54.019Z,1.63
2022-12-19T23:01:27.533Z,1.40
2022-12-19T23:03:58.201Z,1.40
2022-12-19T23:06:28.402Z,1.45
2022-12-19T23:08:56.127Z,1.75
2022-12-19T23:11:30.251Z,1.30
2022-12-19T23:13:57.571Z,1.90
2022-12-19T23:16:24.933Z,1.42
2022-12-19T23:18:52.564Z,1.20
2022-12-19T23:21:21.826Z,1.30
2022-12-19T23:23:51.978Z,1.70
2022-12-19T23:26:28.375Z,1.73
2022-12-19T23:29:01.126Z,1.30
2022-12-19T23:31:29.379Z,1.83
2022-12-19T23:33:57.620Z,1.60
2022-12-19T23:37:00.349Z,1.20
2022-12-19T23:39:12.920Z,1.33
2022-12-19T23:41:40.563Z,1.30
2022-12-19T23:44:09.465Z,1.30
2022-12-19T23:46:37.128Z,1.50
2022-12-19T23:49:04.465Z,1.80
2022-12-19T23:51:31.903Z,1.40
2022-12-19T23:53:59.278Z,1.30
2022-12-19T23:56:28.529Z,1.35
2022-12-19T23:58:55.975Z,1.20
